sensor_id;sensor_type;location;lat;lon;timestamp;P1;P2;P0
40371;PMS5003;28564;53.346;-6.554;2023-02-15T00:01:04;16;16;
40371;PMS5003;28564;53.346;-6.554;2023-02-15T00:03:32;13;13;
40371;PMS5003;28564;53.346;-6.554;2023-02-15T00:05:59;13;12;
40371;PMS5003;28564;53.346;-6.554;2023-02-15T00:08:26;13;12;
40371;PMS5003;28564;53.346;-6.554;2023-02-15T00:10:53;17;13;
40371;PMS5003;28564;53.346;-6.554;2023-02-15T00:13:30;13;13;
40371;PMS5003;28564;53.346;-6.554;2023-02-15T00:16:00;12;11;
40371;PMS5003;28564;53.346;-6.554;2023-02-15T00:18:28;17;13;
40371;PMS5003;28564;53.346;-6.554;2023-02-15T00:20:55;12;11;
40371;PMS5003;28564;53.346;-6.554;2023-02-15T00:23:22;15;13;
40371;PMS5003;28564;53.346;-6.554;2023-02-15T00:25:49;17;12;
40371;PMS5003;28564;53.346;-6.554;2023-02-15T00:28:17;17;13;
40371;PMS5003;28564;53.346;-6.554;2023-02-15T00:30:44;12;12;
40371;PMS5003;28564;53.346;-6.554;2023-02-15T00:33:11;18;18;
40371;PMS5003;28564;53.346;-6.554;2023-02-15T00:35:38;17;13;
40371;PMS5003;28564;53.346;-6.554;2023-02-15T00:38:05;19;15;
40371;PMS5003;28564;53.346;-6.554;2023-02-15T00:40:32;16;14;
40371;PMS5003;28564;53.346;-6.554;2023-02-15T00:42:59;17;16;
40371;PMS5003;28564;53.346;-6.554;2023-02-15T00:45:31;17;15;
40371;PMS5003;28564;53.346;-6.554;2023-02-15T00:47:58;19;18;
40371;PMS5003;28564;53.346;-6.554;2023-02-15T00:50:25;21;18;
40371;PMS5003;28564;53.346;-6.554;2023-02-15T00:52:53;15;11;
40371;PMS5003;28564;53.346;-6.554;2023-02-15T00:55:20;17;13;
40371;PMS5003;28564;53.346;-6.554;2023-02-15T00:57:47;15;11;
40371;PMS5003;28564;53.346;-6.554;2023-02-15T01:00:15;17;13;
40371;PMS5003;28564;53.346;-6.554;2023-02-15T01:02:42;21;16;
40371;PMS5003;28564;53.346;-6.554;2023-02-15T01:05:10;13;13;
40371;PMS5003;28564;53.346;-6.554;2023-02-15T01:07:37;15;13;
40371;PMS5003;28564;53.346;-6.554;2023-02-15T01:10:04;16;15;
40371;PMS5003;28564;53.346;-6.554;2023-02-15T01:12:32;13;12;
40371;PMS5003;28564;53.346;-6.554;2023-02-15T01:14:59;17;13;
40371;PMS5003;28564;53.346;-6.554;2023-02-15T01:17:27;20;18;
40371;PMS5003;28564;53.346;-6.554;2023-02-15T01:19:59;20;19;
40371;PMS5003;28564;53.346;-6.554;2023-02-15T01:22:26;18;16;
40371;PMS5003;28564;53.346;-6.554;2023-02-15T01:24:52;19;17;
40371;PMS5003;28564;53.346;-6.554;2023-02-15T01:27:19;26;21;
40371;PMS5003;28564;53.346;-6.554;2023-02-15T01:29:47;18;15;
40371;PMS5003;28564;53.346;-6.554;2023-02-15T01:32:14;16;14;
40371;PMS5003;28564;53.346;-6.554;2023-02-15T01:34:41;19;17;
40371;PMS5003;28564;53.346;-6.554;2023-02-15T01:37:09;17;15;
40371;PMS5003;28564;53.346;-6.554;2023-02-15T01:39:37;18;15;
40371;PMS5003;28564;53.346;-6.554;2023-02-15T01:42:04;22;17;
40371;PMS5003;28564;53.346;-6.554;2023-02-15T01:44:49;23;15;
40371;PMS5003;28564;53.346;-6.554;2023-02-15T01:47:20;24;20;
40371;PMS5003;28564;53.346;-6.554;2023-02-15T01:49:56;18;18;
40371;PMS5003;28564;53.346;-6.554;2023-02-15T01:52:28;23;18;
40371;PMS5003;28564;53.346;-6.554;2023-02-15T01:54:56;24;19;
40371;PMS5003;28564;53.346;-6.554;2023-02-15T01:57:24;20;20;
40371;PMS5003;28564;53.346;-6.554;2023-02-15T01:59:54;29;25;
40371;PMS5003;28564;53.346;-6.554;2023-02-15T02:02:26;21;19;
40371;PMS5003;28564;53.346;-6.554;2023-02-15T02:04:54;23;21;
40371;PMS5003;28564;53.346;-6.554;2023-02-15T02:07:27;25;23;
40371;PMS5003;28564;53.346;-6.554;2023-02-15T02:09:57;23;20;
40371;PMS5003;28564;53.346;-6.554;2023-02-15T02:12:24;29;24;
40371;PMS5003;28564;53.346;-6.554;2023-02-15T02:14:52;21;18;
40371;PMS5003;28564;53.346;-6.554;2023-02-15T02:17:22;29;23;
40371;PMS5003;28564;53.346;-6.554;2023-02-15T02:20:02;22;21;
40371;PMS5003;28564;53.346;-6.554;2023-02-15T02:22:49;20;20;
40371;PMS5003;28564;53.346;-6.554;2023-02-15T02:25:38;24;19;
40371;PMS5003;28564;53.346;-6.554;2023-02-15T02:28:32;30;25;
40371;PMS5003;28564;53.346;-6.554;2023-02-15T02:33:32;29;25;
40371;PMS5003;28564;53.346;-6.554;2023-02-15T02:36:14;20;18;
40371;PMS5003;28564;53.346;-6.554;2023-02-15T02:38:50;30;26;
40371;PMS5003;28564;53.346;-6.554;2023-02-15T02:41:31;29;24;
40371;PMS5003;28564;53.346;-6.554;2023-02-15T02:44:07;36;29;
40371;PMS5003;28564;53.346;-6.554;2023-02-15T02:46:43;31;25;
40371;PMS5003;28564;53.346;-6.554;2023-02-15T02:49:14;31;27;
40371;PMS5003;28564;53.346;-6.554;2023-02-15T02:51:42;26;22;
40371;PMS5003;28564;53.346;-6.554;2023-02-15T02:54:10;30;24;
40371;PMS5003;28564;53.346;-6.554;2023-02-15T02:56:37;31;25;
40371;PMS5003;28564;53.346;-6.554;2023-02-15T02:59:09;32;30;
40371;PMS5003;28564;53.346;-6.554;2023-02-15T03:01:43;22;18;
40371;PMS5003;28564;53.346;-6.554;2023-02-15T03:04:15;24;21;
40371;PMS5003;28564;53.346;-6.554;2023-02-15T03:06:46;25;22;
40371;PMS5003;28564;53.346;-6.554;2023-02-15T03:09:22;33;29;
40371;PMS5003;28564;53.346;-6.554;2023-02-15T03:11:53;32;30;
40371;PMS5003;28564;53.346;-6.554;2023-02-15T03:14:21;34;25;
40371;PMS5003;28564;53.346;-6.554;2023-02-15T03:16:48;24;24;
40371;PMS5003;28564;53.346;-6.554;2023-02-15T03:19:20;27;27;
40371;PMS5003;28564;53.346;-6.554;2023-02-15T03:21:54;35;31;
40371;PMS5003;28564;53.346;-6.554;2023-02-15T03:24:26;29;23;
40371;PMS5003;28564;53.346;-6.554;2023-02-15T03:26:58;24;22;
40371;PMS5003;28564;53.346;-6.554;2023-02-15T03:29:29;31;26;
40371;PMS5003;28564;53.346;-6.554;2023-02-15T03:31:58;27;21;
40371;PMS5003;28564;53.346;-6.554;2023-02-15T03:34:30;25;22;
40371;PMS5003;28564;53.346;-6.554;2023-02-15T03:36:59;31;23;
40371;PMS5003;28564;53.346;-6.554;2023-02-15T03:39:35;21;18;
40371;PMS5003;28564;53.346;-6.554;2023-02-15T03:42:08;26;24;
40371;PMS5003;28564;53.346;-6.554;2023-02-15T03:44:44;25;20;
40371;PMS5003;28564;53.346;-6.554;2023-02-15T03:47:18;31;25;
40371;PMS5003;28564;53.346;-6.554;2023-02-15T03:49:50;31;24;
40371;PMS5003;28564;53.346;-6.554;2023-02-15T03:52:22;26;23;
40371;PMS5003;28564;53.346;-6.554;2023-02-15T03:54:52;33;24;
40371;PMS5003;28564;53.346;-6.554;2023-02-15T03:57:21;27;22;
40371;PMS5003;28564;53.346;-6.554;2023-02-15T03:59:51;24;18;
40371;PMS5003;28564;53.346;-6.554;2023-02-15T04:02:19;30;23;
40371;PMS5003;28564;53.346;-6.554;2023-02-15T04:04:51;24;21;
40371;PMS5003;28564;53.346;-6.554;2023-02-15T04:07:18;26;24;
40371;PMS5003;28564;53.346;-6.554;2023-02-15T04:09:45;27;22;
40371;PMS5003;28564;53.346;-6.554;2023-02-15T04:12:12;22;20;
40371;PMS5003;28564;53.346;-6.554;2023-02-15T04:14:39;24;22;
40371;PMS5003;28564;53.346;-6.554;2023-02-15T04:17:06;27;21;
40371;PMS5003;28564;53.346;-6.554;2023-02-15T04:19:34;25;22;
40371;PMS5003;28564;53.346;-6.554;2023-02-15T04:22:01;19;18;
40371;PMS5003;28564;53.346;-6.554;2023-02-15T04:24:29;29;26;
40371;PMS5003;28564;53.346;-6.554;2023-02-15T04:26:56;27;23;
40371;PMS5003;28564;53.346;-6.554;2023-02-15T04:29:24;28;21;
40371;PMS5003;28564;53.346;-6.554;2023-02-15T04:31:53;24;21;
40371;PMS5003;28564;53.346;-6.554;2023-02-15T04:34:22;23;19;
40371;PMS5003;28564;53.346;-6.554;2023-02-15T04:36:50;24;17;
40371;PMS5003;28564;53.346;-6.554;2023-02-15T04:39:18;25;23;
40371;PMS5003;28564;53.346;-6.554;2023-02-15T04:41:45;19;19;
40371;PMS5003;28564;53.346;-6.554;2023-02-15T04:44:12;25;20;
40371;PMS5003;28564;53.346;-6.554;2023-02-15T04:46:39;21;21;
40371;PMS5003;28564;53.346;-6.554;2023-02-15T04:49:07;34;24;
40371;PMS5003;28564;53.346;-6.554;2023-02-15T04:51:35;8;8;
40371;PMS5003;28564;53.346;-6.554;2023-02-15T04:54:03;3;3;
40371;PMS5003;28564;53.346;-6.554;2023-02-15T04:56:29;0;0;
40371;PMS5003;28564;53.346;-6.554;2023-02-15T04:58:57;0;0;
40371;PMS5003;28564;53.346;-6.554;2023-02-15T05:01:24;0;0;
40371;PMS5003;28564;53.346;-6.554;2023-02-15T05:03:51;1;0;
40371;PMS5003;28564;53.346;-6.554;2023-02-15T05:06:19;0;0;
40371;PMS5003;28564;53.346;-6.554;2023-02-15T05:08:47;0;0;
40371;PMS5003;28564;53.346;-6.554;2023-02-15T05:11:14;0;0;
40371;PMS5003;28564;53.346;-6.554;2023-02-15T05:13:41;0;0;
40371;PMS5003;28564;53.346;-6.554;2023-02-15T05:16:09;0;0;
40371;PMS5003;28564;53.346;-6.554;2023-02-15T05:18:36;0;0;
40371;PMS5003;28564;53.346;-6.554;2023-02-15T05:21:03;0;0;
40371;PMS5003;28564;53.346;-6.554;2023-02-15T05:23:30;1;0;
40371;PMS5003;28564;53.346;-6.554;2023-02-15T05:25:58;0;0;
40371;PMS5003;28564;53.346;-6.554;2023-02-15T05:28:26;0;0;
40371;PMS5003;28564;53.346;-6.554;2023-02-15T05:30:59;0;0;
40371;PMS5003;28564;53.346;-6.554;2023-02-15T05:33:30;0;0;
40371;PMS5003;28564;53.346;-6.554;2023-02-15T05:35:58;0;0;
40371;PMS5003;28564;53.346;-6.554;2023-02-15T05:38:25;0;0;
40371;PMS5003;28564;53.346;-6.554;2023-02-15T05:40:53;0;0;
40371;PMS5003;28564;53.346;-6.554;2023-02-15T05:43:20;0;0;
40371;PMS5003;28564;53.346;-6.554;2023-02-15T05:45:48;0;0;
40371;PMS5003;28564;53.346;-6.554;2023-02-15T05:48:17;1;0;
40371;PMS5003;28564;53.346;-6.554;2023-02-15T05:50:45;0;0;
40371;PMS5003;28564;53.346;-6.554;2023-02-15T05:53:13;0;0;
40371;PMS5003;28564;53.346;-6.554;2023-02-15T05:55:40;0;0;
40371;PMS5003;28564;53.346;-6.554;2023-02-15T05:58:07;0;0;
40371;PMS5003;28564;53.346;-6.554;2023-02-15T06:00:35;0;0;
40371;PMS5003;28564;53.346;-6.554;2023-02-15T06:03:02;0;0;
40371;PMS5003;28564;53.346;-6.554;2023-02-15T06:05:30;0;0;
40371;PMS5003;28564;53.346;-6.554;2023-02-15T06:07:57;0;0;
40371;PMS5003;28564;53.346;-6.554;2023-02-15T06:10:25;0;0;
40371;PMS5003;28564;53.346;-6.554;2023-02-15T06:12:52;0;0;
40371;PMS5003;28564;53.346;-6.554;2023-02-15T06:15:19;0;0;
40371;PMS5003;28564;53.346;-6.554;2023-02-15T06:17:47;0;0;
40371;PMS5003;28564;53.346;-6.554;2023-02-15T06:20:14;0;0;
40371;PMS5003;28564;53.346;-6.554;2023-02-15T06:22:41;1;0;
40371;PMS5003;28564;53.346;-6.554;2023-02-15T06:25:08;0;0;
40371;PMS5003;28564;53.346;-6.554;2023-02-15T06:27:36;0;0;
40371;PMS5003;28564;53.346;-6.554;2023-02-15T06:30:04;0;0;
40371;PMS5003;28564;53.346;-6.554;2023-02-15T06:32:32;0;0;
40371;PMS5003;28564;53.346;-6.554;2023-02-15T06:34:59;0;0;
40371;PMS5003;28564;53.346;-6.554;2023-02-15T06:37:27;0;0;
40371;PMS5003;28564;53.346;-6.554;2023-02-15T06:39:54;0;0;
40371;PMS5003;28564;53.346;-6.554;2023-02-15T06:42:21;0;0;
40371;PMS5003;28564;53.346;-6.554;2023-02-15T06:44:48;0;0;
40371;PMS5003;28564;53.346;-6.554;2023-02-15T06:47:16;0;0;
40371;PMS5003;28564;53.346;-6.554;2023-02-15T06:49:43;0;0;
40371;PMS5003;28564;53.346;-6.554;2023-02-15T06:52:10;0;0;
40371;PMS5003;28564;53.346;-6.554;2023-02-15T06:54:38;0;0;
40371;PMS5003;28564;53.346;-6.554;2023-02-15T06:57:05;1;0;
40371;PMS5003;28564;53.346;-6.554;2023-02-15T06:59:32;0;0;
40371;PMS5003;28564;53.346;-6.554;2023-02-15T07:01:59;0;0;
40371;PMS5003;28564;53.346;-6.554;2023-02-15T07:04:27;0;0;
40371;PMS5003;28564;53.346;-6.554;2023-02-15T07:06:54;0;0;
40371;PMS5003;28564;53.346;-6.554;2023-02-15T07:09:21;0;0;
40371;PMS5003;28564;53.346;-6.554;2023-02-15T07:11:49;0;0;
40371;PMS5003;28564;53.346;-6.554;2023-02-15T07:14:17;0;0;
40371;PMS5003;28564;53.346;-6.554;2023-02-15T07:16:45;0;0;
40371;PMS5003;28564;53.346;-6.554;2023-02-15T07:19:12;0;0;
40371;PMS5003;28564;53.346;-6.554;2023-02-15T07:21:39;0;0;
40371;PMS5003;28564;53.346;-6.554;2023-02-15T07:24:07;0;0;
40371;PMS5003;28564;53.346;-6.554;2023-02-15T07:26:34;0;0;
40371;PMS5003;28564;53.346;-6.554;2023-02-15T07:29:01;0;0;
40371;PMS5003;28564;53.346;-6.554;2023-02-15T07:31:29;1;0;
40371;PMS5003;28564;53.346;-6.554;2023-02-15T07:33:56;0;0;
40371;PMS5003;28564;53.346;-6.554;2023-02-15T07:36:23;1;0;
40371;PMS5003;28564;53.346;-6.554;2023-02-15T07:38:50;2;0;
40371;PMS5003;28564;53.346;-6.554;2023-02-15T07:41:18;0;0;
40371;PMS5003;28564;53.346;-6.554;2023-02-15T07:43:45;0;0;
40371;PMS5003;28564;53.346;-6.554;2023-02-15T07:46:13;0;0;
40371;PMS5003;28564;53.346;-6.554;2023-02-15T07:48:42;0;0;
40371;PMS5003;28564;53.346;-6.554;2023-02-15T07:51:11;0;0;
40371;PMS5003;28564;53.346;-6.554;2023-02-15T07:53:38;0;0;
40371;PMS5003;28564;53.346;-6.554;2023-02-15T07:56:07;0;0;
40371;PMS5003;28564;53.346;-6.554;2023-02-15T07:58:37;0;0;
40371;PMS5003;28564;53.346;-6.554;2023-02-15T08:01:04;0;0;
40371;PMS5003;28564;53.346;-6.554;2023-02-15T08:03:32;0;0;
40371;PMS5003;28564;53.346;-6.554;2023-02-15T08:05:59;0;0;
40371;PMS5003;28564;53.346;-6.554;2023-02-15T08:08:26;0;0;
40371;PMS5003;28564;53.346;-6.554;2023-02-15T08:10:53;0;0;
40371;PMS5003;28564;53.346;-6.554;2023-02-15T08:13:24;0;0;
40371;PMS5003;28564;53.346;-6.554;2023-02-15T08:15:52;0;0;
40371;PMS5003;28564;53.346;-6.554;2023-02-15T08:18:19;0;0;
40371;PMS5003;28564;53.346;-6.554;2023-02-15T08:20:48;0;0;
40371;PMS5003;28564;53.346;-6.554;2023-02-15T08:23:16;0;0;
40371;PMS5003;28564;53.346;-6.554;2023-02-15T08:25:43;0;0;
40371;PMS5003;28564;53.346;-6.554;2023-02-15T08:28:10;0;0;
40371;PMS5003;28564;53.346;-6.554;2023-02-15T08:30:38;0;0;
40371;PMS5003;28564;53.346;-6.554;2023-02-15T08:33:05;0;0;
40371;PMS5003;28564;53.346;-6.554;2023-02-15T08:35:33;1;1;
40371;PMS5003;28564;53.346;-6.554;2023-02-15T08:38:00;0;0;
40371;PMS5003;28564;53.346;-6.554;2023-02-15T08:40:28;0;0;
40371;PMS5003;28564;53.346;-6.554;2023-02-15T08:42:55;0;0;
40371;PMS5003;28564;53.346;-6.554;2023-02-15T08:45:22;0;0;
40371;PMS5003;28564;53.346;-6.554;2023-02-15T08:47:50;0;0;
40371;PMS5003;28564;53.346;-6.554;2023-02-15T08:50:17;0;0;
40371;PMS5003;28564;53.346;-6.554;2023-02-15T08:52:44;0;0;
40371;PMS5003;28564;53.346;-6.554;2023-02-15T08:55:12;0;0;
40371;PMS5003;28564;53.346;-6.554;2023-02-15T08:57:39;0;0;
40371;PMS5003;28564;53.346;-6.554;2023-02-15T09:00:06;0;0;
40371;PMS5003;28564;53.346;-6.554;2023-02-15T09:02:34;0;0;
40371;PMS5003;28564;53.346;-6.554;2023-02-15T09:05:02;0;0;
40371;PMS5003;28564;53.346;-6.554;2023-02-15T09:07:29;0;0;
40371;PMS5003;28564;53.346;-6.554;2023-02-15T09:09:56;0;0;
40371;PMS5003;28564;53.346;-6.554;2023-02-15T09:12:23;1;1;
40371;PMS5003;28564;53.346;-6.554;2023-02-15T09:14:51;1;0;
40371;PMS5003;28564;53.346;-6.554;2023-02-15T09:17:18;0;0;
40371;PMS5003;28564;53.346;-6.554;2023-02-15T09:19:45;1;0;
40371;PMS5003;28564;53.346;-6.554;2023-02-15T09:22:13;0;0;
40371;PMS5003;28564;53.346;-6.554;2023-02-15T09:24:40;1;1;
40371;PMS5003;28564;53.346;-6.554;2023-02-15T09:27:07;1;0;
40371;PMS5003;28564;53.346;-6.554;2023-02-15T09:29:34;0;0;
40371;PMS5003;28564;53.346;-6.554;2023-02-15T09:32:02;2;1;
40371;PMS5003;28564;53.346;-6.554;2023-02-15T09:34:30;0;0;
40371;PMS5003;28564;53.346;-6.554;2023-02-15T09:36:57;0;0;
40371;PMS5003;28564;53.346;-6.554;2023-02-15T09:39:25;1;0;
40371;PMS5003;28564;53.346;-6.554;2023-02-15T09:41:59;1;0;
40371;PMS5003;28564;53.346;-6.554;2023-02-15T09:44:38;0;0;
40371;PMS5003;28564;53.346;-6.554;2023-02-15T09:47:21;0;0;
40371;PMS5003;28564;53.346;-6.554;2023-02-15T09:50:00;0;0;
40371;PMS5003;28564;53.346;-6.554;2023-02-15T09:52:34;0;0;
40371;PMS5003;28564;53.346;-6.554;2023-02-15T09:55:16;0;0;
40371;PMS5003;28564;53.346;-6.554;2023-02-15T09:57:57;0;0;
40371;PMS5003;28564;53.346;-6.554;2023-02-15T10:04:01;0;0;
40371;PMS5003;28564;53.346;-6.554;2023-02-15T10:06:48;1;1;
40371;PMS5003;28564;53.346;-6.554;2023-02-15T10:09:29;0;0;
40371;PMS5003;28564;53.346;-6.554;2023-02-15T10:12:11;0;0;
40371;PMS5003;28564;53.346;-6.554;2023-02-15T10:15:04;0;0;
40371;PMS5003;28564;53.346;-6.554;2023-02-15T10:17:44;0;0;
40371;PMS5003;28564;53.346;-6.554;2023-02-15T10:20:30;0;0;
40371;PMS5003;28564;53.346;-6.554;2023-02-15T10:23:09;0;0;
40371;PMS5003;28564;53.346;-6.554;2023-02-15T10:25:48;0;0;
40371;PMS5003;28564;53.346;-6.554;2023-02-15T10:28:23;0;0;
40371;PMS5003;28564;53.346;-6.554;2023-02-15T10:30:58;1;0;
40371;PMS5003;28564;53.346;-6.554;2023-02-15T10:33:37;0;0;
40371;PMS5003;28564;53.346;-6.554;2023-02-15T10:36:08;0;0;
40371;PMS5003;28564;53.346;-6.554;2023-02-15T10:38:48;0;0;
40371;PMS5003;28564;53.346;-6.554;2023-02-15T10:41:28;2;1;
40371;PMS5003;28564;53.346;-6.554;2023-02-15T10:44:16;0;0;
40371;PMS5003;28564;53.346;-6.554;2023-02-15T10:46:58;0;0;
40371;PMS5003;28564;53.346;-6.554;2023-02-15T10:49:39;0;0;
40371;PMS5003;28564;53.346;-6.554;2023-02-15T10:52:20;0;0;
40371;PMS5003;28564;53.346;-6.554;2023-02-15T10:54:57;0;0;
40371;PMS5003;28564;53.346;-6.554;2023-02-15T10:57:36;0;0;
40371;PMS5003;28564;53.346;-6.554;2023-02-15T11:00:13;0;0;
40371;PMS5003;28564;53.346;-6.554;2023-02-15T11:02:56;0;0;
40371;PMS5003;28564;53.346;-6.554;2023-02-15T11:05:39;0;0;
40371;PMS5003;28564;53.346;-6.554;2023-02-15T11:08:12;0;0;
40371;PMS5003;28564;53.346;-6.554;2023-02-15T11:10:40;0;0;
40371;PMS5003;28564;53.346;-6.554;2023-02-15T11:13:12;0;0;
40371;PMS5003;28564;53.346;-6.554;2023-02-15T11:15:44;0;0;
40371;PMS5003;28564;53.346;-6.554;2023-02-15T11:18:19;0;0;
40371;PMS5003;28564;53.346;-6.554;2023-02-15T11:20:53;0;0;
40371;PMS5003;28564;53.346;-6.554;2023-02-15T11:23:23;0;0;
40371;PMS5003;28564;53.346;-6.554;2023-02-15T11:25:54;1;1;
40371;PMS5003;28564;53.346;-6.554;2023-02-15T11:28:25;1;0;
40371;PMS5003;28564;53.346;-6.554;2023-02-15T11:30:58;1;1;
40371;PMS5003;28564;53.346;-6.554;2023-02-15T11:33:37;1;1;
40371;PMS5003;28564;53.346;-6.554;2023-02-15T11:36:12;3;0;
40371;PMS5003;28564;53.346;-6.554;2023-02-15T11:38:42;0;0;
40371;PMS5003;28564;53.346;-6.554;2023-02-15T11:45:38;0;0;
40371;PMS5003;28564;53.346;-6.554;2023-02-15T11:48:09;1;1;
40371;PMS5003;28564;53.346;-6.554;2023-02-15T11:50:38;0;0;
40371;PMS5003;28564;53.346;-6.554;2023-02-15T12:11:11;2;0;
40371;PMS5003;28564;53.346;-6.554;2023-02-15T12:13:53;1;1;
40371;PMS5003;28564;53.346;-6.554;2023-02-15T12:16:21;2;1;
40371;PMS5003;28564;53.346;-6.554;2023-02-15T12:18:48;1;0;
40371;PMS5003;28564;53.346;-6.554;2023-02-15T12:21:23;2;0;
40371;PMS5003;28564;53.346;-6.554;2023-02-15T12:23:53;2;1;
40371;PMS5003;28564;53.346;-6.554;2023-02-15T12:26:24;1;1;
40371;PMS5003;28564;53.346;-6.554;2023-02-15T12:28:53;2;2;
40371;PMS5003;28564;53.346;-6.554;2023-02-15T12:31:22;1;1;
40371;PMS5003;28564;53.346;-6.554;2023-02-15T12:33:55;3;2;
40371;PMS5003;28564;53.346;-6.554;2023-02-15T12:36:24;2;1;
40371;PMS5003;28564;53.346;-6.554;2023-02-15T12:39:04;2;0;
40371;PMS5003;28564;53.346;-6.554;2023-02-15T12:41:44;1;1;
40371;PMS5003;28564;53.346;-6.554;2023-02-15T12:44:16;2;2;
40371;PMS5003;28564;53.346;-6.554;2023-02-15T12:46:55;1;1;
40371;PMS5003;28564;53.346;-6.554;2023-02-15T12:49:24;1;1;
40371;PMS5003;28564;53.346;-6.554;2023-02-15T12:51:54;0;0;
40371;PMS5003;28564;53.346;-6.554;2023-02-15T12:54:33;1;1;
40371;PMS5003;28564;53.346;-6.554;2023-02-15T12:57:21;1;1;
40371;PMS5003;28564;53.346;-6.554;2023-02-15T12:59:50;0;0;
40371;PMS5003;28564;53.346;-6.554;2023-02-15T13:02:22;1;1;
40371;PMS5003;28564;53.346;-6.554;2023-02-15T13:04:52;0;0;
40371;PMS5003;28564;53.346;-6.554;2023-02-15T13:07:20;0;0;
40371;PMS5003;28564;53.346;-6.554;2023-02-15T13:09:48;1;1;
40371;PMS5003;28564;53.346;-6.554;2023-02-15T13:12:18;0;0;
40371;PMS5003;28564;53.346;-6.554;2023-02-15T13:14:49;1;0;
40371;PMS5003;28564;53.346;-6.554;2023-02-15T13:17:19;1;1;
40371;PMS5003;28564;53.346;-6.554;2023-02-15T13:19:52;0;0;
40371;PMS5003;28564;53.346;-6.554;2023-02-15T13:22:20;1;1;
40371;PMS5003;28564;53.346;-6.554;2023-02-15T13:24:53;4;2;
40371;PMS5003;28564;53.346;-6.554;2023-02-15T13:27:26;1;0;
40371;PMS5003;28564;53.346;-6.554;2023-02-15T13:30:19;0;0;
40371;PMS5003;28564;53.346;-6.554;2023-02-15T13:32:51;0;0;
40371;PMS5003;28564;53.346;-6.554;2023-02-15T13:35:22;1;0;
40371;PMS5003;28564;53.346;-6.554;2023-02-15T13:37:58;0;0;
40371;PMS5003;28564;53.346;-6.554;2023-02-15T13:40:51;0;0;
40371;PMS5003;28564;53.346;-6.554;2023-02-15T13:43:25;1;1;
40371;PMS5003;28564;53.346;-6.554;2023-02-15T13:46:06;1;0;
40371;PMS5003;28564;53.346;-6.554;2023-02-15T13:48:45;0;0;
40371;PMS5003;28564;53.346;-6.554;2023-02-15T13:51:21;0;0;
40371;PMS5003;28564;53.346;-6.554;2023-02-15T13:53:58;1;0;
40371;PMS5003;28564;53.346;-6.554;2023-02-15T13:56:39;3;1;
40371;PMS5003;28564;53.346;-6.554;2023-02-15T13:59:24;1;0;
40371;PMS5003;28564;53.346;-6.554;2023-02-15T14:02:23;2;2;
40371;PMS5003;28564;53.346;-6.554;2023-02-15T14:05:28;2;0;
40371;PMS5003;28564;53.346;-6.554;2023-02-15T14:08:11;2;2;
40371;PMS5003;28564;53.346;-6.554;2023-02-15T14:10:46;1;1;
40371;PMS5003;28564;53.346;-6.554;2023-02-15T14:13:41;2;1;
40371;PMS5003;28564;53.346;-6.554;2023-02-15T14:16:18;1;0;
40371;PMS5003;28564;53.346;-6.554;2023-02-15T14:18:54;0;0;
40371;PMS5003;28564;53.346;-6.554;2023-02-15T14:21:26;0;0;
40371;PMS5003;28564;53.346;-6.554;2023-02-15T14:24:01;1;0;
40371;PMS5003;28564;53.346;-6.554;2023-02-15T14:26:46;1;1;
40371;PMS5003;28564;53.346;-6.554;2023-02-15T14:29:23;2;2;
40371;PMS5003;28564;53.346;-6.554;2023-02-15T14:32:02;3;2;
40371;PMS5003;28564;53.346;-6.554;2023-02-15T14:34:36;12;11;
40371;PMS5003;28564;53.346;-6.554;2023-02-15T14:37:11;1;0;
40371;PMS5003;28564;53.346;-6.554;2023-02-15T14:39:42;1;0;
40371;PMS5003;28564;53.346;-6.554;2023-02-15T14:42:18;3;1;
40371;PMS5003;28564;53.346;-6.554;2023-02-15T14:44:53;0;0;
40371;PMS5003;28564;53.346;-6.554;2023-02-15T14:47:27;1;1;
40371;PMS5003;28564;53.346;-6.554;2023-02-15T14:50:19;3;2;
40371;PMS5003;28564;53.346;-6.554;2023-02-15T14:53:37;1;0;
40371;PMS5003;28564;53.346;-6.554;2023-02-15T14:56:06;1;0;
40371;PMS5003;28564;53.346;-6.554;2023-02-15T14:58:54;2;1;
40371;PMS5003;28564;53.346;-6.554;2023-02-15T15:01:25;2;0;
40371;PMS5003;28564;53.346;-6.554;2023-02-15T15:03:54;2;0;
40371;PMS5003;28564;53.346;-6.554;2023-02-15T15:06:25;1;1;
40371;PMS5003;28564;53.346;-6.554;2023-02-15T15:08:55;2;0;
40371;PMS5003;28564;53.346;-6.554;2023-02-15T15:11:44;0;0;
40371;PMS5003;28564;53.346;-6.554;2023-02-15T15:14:45;2;2;
40371;PMS5003;28564;53.346;-6.554;2023-02-15T15:17:13;0;0;
40371;PMS5003;28564;53.346;-6.554;2023-02-15T15:20:37;2;2;
40371;PMS5003;28564;53.346;-6.554;2023-02-15T15:23:46;0;0;
40371;PMS5003;28564;53.346;-6.554;2023-02-15T15:26:21;2;1;
40371;PMS5003;28564;53.346;-6.554;2023-02-15T15:28:53;2;0;
40371;PMS5003;28564;53.346;-6.554;2023-02-15T15:31:22;1;1;
40371;PMS5003;28564;53.346;-6.554;2023-02-15T15:35:06;0;0;
40371;PMS5003;28564;53.346;-6.554;2023-02-15T15:37:58;0;0;
40371;PMS5003;28564;53.346;-6.554;2023-02-15T15:40:41;0;0;
40371;PMS5003;28564;53.346;-6.554;2023-02-15T15:43:31;0;0;
40371;PMS5003;28564;53.346;-6.554;2023-02-15T15:46:55;1;1;
40371;PMS5003;28564;53.346;-6.554;2023-02-15T15:49:35;2;1;
40371;PMS5003;28564;53.346;-6.554;2023-02-15T15:52:08;1;1;
40371;PMS5003;28564;53.346;-6.554;2023-02-15T15:54:40;0;0;
40371;PMS5003;28564;53.346;-6.554;2023-02-15T15:57:14;1;1;
40371;PMS5003;28564;53.346;-6.554;2023-02-15T15:59:45;0;0;
40371;PMS5003;28564;53.346;-6.554;2023-02-15T16:02:14;2;2;
40371;PMS5003;28564;53.346;-6.554;2023-02-15T16:04:43;1;1;
40371;PMS5003;28564;53.346;-6.554;2023-02-15T16:07:13;2;1;
40371;PMS5003;28564;53.346;-6.554;2023-02-15T16:09:57;2;1;
40371;PMS5003;28564;53.346;-6.554;2023-02-15T16:12:25;0;0;
40371;PMS5003;28564;53.346;-6.554;2023-02-15T16:14:54;0;0;
40371;PMS5003;28564;53.346;-6.554;2023-02-15T16:17:23;1;1;
40371;PMS5003;28564;53.346;-6.554;2023-02-15T16:19:52;0;0;
40371;PMS5003;28564;53.346;-6.554;2023-02-15T16:22:27;3;1;
40371;PMS5003;28564;53.346;-6.554;2023-02-15T16:24:59;1;1;
40371;PMS5003;28564;53.346;-6.554;2023-02-15T16:27:42;3;3;
40371;PMS5003;28564;53.346;-6.554;2023-02-15T16:30:19;3;1;
40371;PMS5003;28564;53.346;-6.554;2023-02-15T16:32:51;1;1;
40371;PMS5003;28564;53.346;-6.554;2023-02-15T16:35:20;3;1;
40371;PMS5003;28564;53.346;-6.554;2023-02-15T16:37:48;4;2;
40371;PMS5003;28564;53.346;-6.554;2023-02-15T16:40:36;2;2;
40371;PMS5003;28564;53.346;-6.554;2023-02-15T16:43:13;0;0;
40371;PMS5003;28564;53.346;-6.554;2023-02-15T16:45:43;2;1;
40371;PMS5003;28564;53.346;-6.554;2023-02-15T16:48:11;2;1;
40371;PMS5003;28564;53.346;-6.554;2023-02-15T16:50:46;1;1;
40371;PMS5003;28564;53.346;-6.554;2023-02-15T16:53:17;2;1;
40371;PMS5003;28564;53.346;-6.554;2023-02-15T16:55:48;1;1;
40371;PMS5003;28564;53.346;-6.554;2023-02-15T16:58:18;4;2;
40371;PMS5003;28564;53.346;-6.554;2023-02-15T17:00:50;4;2;
40371;PMS5003;28564;53.346;-6.554;2023-02-15T17:03:22;1;1;
40371;PMS5003;28564;53.346;-6.554;2023-02-15T17:05:52;1;1;
40371;PMS5003;28564;53.346;-6.554;2023-02-15T17:08:24;1;1;
40371;PMS5003;28564;53.346;-6.554;2023-02-15T17:11:03;3;3;
40371;PMS5003;28564;53.346;-6.554;2023-02-15T17:13:36;3;1;
40371;PMS5003;28564;53.346;-6.554;2023-02-15T17:16:18;9;8;
40371;PMS5003;28564;53.346;-6.554;2023-02-15T17:18:52;8;5;
40371;PMS5003;28564;53.346;-6.554;2023-02-15T17:21:19;3;3;
40371;PMS5003;28564;53.346;-6.554;2023-02-15T17:23:51;2;2;
40371;PMS5003;28564;53.346;-6.554;2023-02-15T17:26:23;2;1;